Eurasian Highway — 7JKY — position and weather

sailwx.info

Track history (hours):
 
Tides and Currents Weather Stations Pressure Air Temp Water Temp Dewpoint Dewpoint Depression Visibility Wind Speed Wind Dir Waves Ship Positions

Eurasian Highway

Last reported at 2017-Dec-08 05:33 UTC. Time now 2017-Dec-11 20:43 UTC.
Position N 23°14' E 119°48'.

Length 199 m; draft 9.2 m.

Type: Cargo ship. MMSI: 432839000.

Date/timePositionNaut miles runAvg speedWind from/ knotsBaromVisibWave heightAir tempDewpointWater temp
2017-Dec-08 05:33N 23°14' E 119°48'817.0
2017-Dec-08 05:06N 23°21' E 119°49'116.2
2017-Dec-08 05:00N 23°22' E 119°50'816.0
2017-Dec-08 04:31N 23°30' E 119°50'815.2
2017-Dec-08 04:01N 23°38' E 119°51'815.4
2017-Dec-08 03:30N 23°46' E 119°52'7917.0
2017-Dec-07 22:51N 24°55' E 120°34'717.4
2017-Dec-07 22:29N 25°00' E 120°38'1217.1
2017-Dec-07 21:47N 25°10' E 120°46'817.1
2017-Dec-07 21:18N 25°16' E 120°51'516.8
2017-Dec-07 21:00N 25°20' E 120°54'1017.3
2017-Dec-07 20:27N 25°28' E 121°01'  
2017-Nov-30 22:35N 33°59' E 129°50'115.7
2017-Nov-30 22:30N 33°59' E 129°52'816.0
2017-Nov-30 22:00N 34°01' E 130°01'815.9
2017-Nov-30 21:30N 34°02' E 130°11'816.1
2017-Nov-30 21:00N 34°03' E 130°20'815.8
2017-Nov-30 20:30N 34°04' E 130°30'815.7
2017-Nov-30 20:00N 34°04' E 130°39'815.3
2017-Nov-30 19:30N 34°03' E 130°48'612.2
2017-Nov-30 19:00N 33°58' E 130°53'4 7.3
2017-Nov-30 18:30N 33°55' E 130°54'4 7.8
2017-Nov-30 18:00N 33°58' E 130°57'4 7.3
2017-Nov-30 17:30N 33°58' E 131°02'4 8.5
2017-Nov-30 17:00N 33°55' E 131°05'4 8.1
2017-Nov-30 16:30N 33°53' E 131°09'5 9.0
2017-Nov-30 16:00N 33°51' E 131°14'611.2
2017-Nov-30 15:30N 33°50' E 131°21'714.8
2017-Nov-30 15:01N 33°49' E 131°30'714.7
2017-Nov-30 14:31N 33°47' E 131°38'714.6
2017-Nov-30 14:01N 33°46' E 131°47'714.9
2017-Nov-30 13:31N 33°44' E 131°56'815.4
2017-Nov-30 13:00N 33°42' E 132°05'815.5
2017-Nov-30 12:30N 33°43' E 132°14'1016.3
2017-Nov-30 11:54N 33°47' E 132°25'716.3
2017-Nov-30 11:29N 33°52' E 132°30'713.1
2017-Nov-30 10:59N 33°58' E 132°34'5 9.9
2017-Nov-30 10:27N 34°01' E 132°30'715.2
2017-Nov-30 10:00N 34°06' E 132°24'715.0
2017-Nov-30 09:30N 34°13' E 132°20'713.9
2017-Nov-30 09:00N 34°20' E 132°22'1 2.2
2017-Nov-30 08:30N 34°21' E 132°22'0 0.0
2017-Nov-30 08:00N 34°21' E 132°22'0 0.0
2017-Nov-30 07:30N 34°21' E 132°22'0 0.0
2017-Nov-30 07:00N 34°21' E 132°22'0 0.0
2017-Nov-30 06:30N 34°21' E 132°22'0 0.0
2017-Nov-30 06:00N 34°21' E 132°22'0 0.0
2017-Nov-30 05:29N 34°21' E 132°22'0 0.0
2017-Nov-30 05:00N 34°21' E 132°22'0 0.0
2017-Nov-30 04:30N 34°21' E 132°22'0 0.0
2017-Nov-30 04:00N 34°21' E 132°22'0 0.0
2017-Nov-30 03:30N 34°21' E 132°22'0 0.0
2017-Nov-30 02:59N 34°21' E 132°22'0 0.0
2017-Nov-30 02:27N 34°21' E 132°22'0 0.0
2017-Nov-30 02:00N 34°21' E 132°22'0 0.0
2017-Nov-30 01:30N 34°21' E 132°22'0 0.0
2017-Nov-30 01:00N 34°21' E 132°22'0 0.0
2017-Nov-30 00:29N 34°21' E 132°22'0 0.0
2017-Nov-30 00:00N 34°21' E 132°22'0 0.0
2017-Nov-29 23:23N 34°21' E 132°22'0 0.0
2017-Nov-29 23:00N 34°21' E 132°22'0 0.0
2017-Nov-29 22:27N 34°21' E 132°22'0 0.0
2017-Nov-29 22:00N 34°21' E 132°22'1 1.6
2017-Nov-29 21:30N 34°20' E 132°22'3 5.4
2017-Nov-29 21:01N 34°18' E 132°21'4 8.5
2017-Nov-29 20:30N 34°13' E 132°21'510.8
2017-Nov-29 20:00N 34°08' E 132°22'611.9
2017-Nov-29 19:30N 34°03' E 132°26'611.2
2017-Nov-29 19:00N 34°01' E 132°32'510.2
2017-Nov-29 18:29N 33°56' E 132°35'612.7
2017-Nov-29 17:59N 33°51' E 132°30'613.2
2017-Nov-29 17:31N 33°46' E 132°25'713.4
2017-Nov-29 17:00N 33°41' E 132°19'913.2
2017-Nov-29 16:18N 33°34' E 132°12'513.1
2017-Nov-29 15:53N 33°30' E 132°08'513.0
2017-Nov-29 15:30N 33°26' E 132°04'714.1
2017-Nov-29 15:01N 33°20' E 131°60'613.0
2017-Nov-29 14:31N 33°14' E 132°00'3 5.7
2017-Nov-29 14:00N 33°11' E 132°01'510.0
2017-Nov-29 13:31N 33°09' E 132°06'610.6
2017-Nov-29 12:59N 33°06' E 132°12'612.2
2017-Nov-29 12:29N 33°01' E 132°16'5811.8
2017-Nov-29 07:36N 32°36' E 133°19'18018.9
2017-Nov-28 22:06N 33°26' E 136°45'10519.3
2017-Nov-28 16:40N 34°00' E 138°44'518.8
2017-Nov-28 16:24N 34°02' E 138°50'1318.1
2017-Nov-28 15:40N 34°06' E 139°05'1217.8
2017-Nov-28 15:00N 34°10' E 139°18'1116.6
2017-Nov-28 14:20N 34°20' E 139°25'818.2
2017-Nov-28 13:54N 34°27' E 139°29'718.8
2017-Nov-28 13:30N 34°34' E 139°32'917.9
2017-Nov-28 13:00N 34°43' E 139°35'1019.3
2017-Nov-28 12:30N 34°52' E 139°39'1019.5
2017-Nov-28 12:00N 35°02' E 139°40'714.3
2017-Nov-28 11:30N 35°08' E 139°44'611.1
2017-Nov-28 11:00N 35°13' E 139°46'611.3
2017-Nov-28 10:31N 35°18' E 139°44'612.7
2017-Nov-28 10:01N 35°25' E 139°43'4 7.6
2017-Nov-28 09:30N 35°28' E 139°42'1 1.3
2017-Nov-28 08:59N 35°28' E 139°41'0 0.0
2017-Nov-28 08:29N 35°28' E 139°41'0 0.0
2017-Nov-28 07:59N 35°28' E 139°41'0 0.0
2017-Nov-28 07:29N 35°28' E 139°41'0 0.0
2017-Nov-28 06:59N 35°28' E 139°41'0 0.0
2017-Nov-28 06:29N 35°28' E 139°41'0 0.0
2017-Nov-28 05:59N 35°28' E 139°41'  
Track history (hours):
 
Tides and Currents Weather Stations Pressure Air Temp Water Temp Dewpoint Dewpoint Depression Visibility Wind Speed Wind Dir Waves Ship Positions

Eurasian Highway

Last reported at 2017-Dec-08 05:33 UTC. Time now 2017-Dec-11 20:43 UTC.
Position N 23°14' E 119°48'.

Length 199 m; draft 9.2 m.

Type: Cargo ship. MMSI: 432839000.

Date/timePositionNaut miles runAvg speedWind from/ knotsBaromVisibWave heightAir tempDewpointWater temp
2017-Dec-08 05:33N 23°14' E 119°48'817.0
2017-Dec-08 05:06N 23°21' E 119°49'116.2
2017-Dec-08 05:00N 23°22' E 119°50'816.0
2017-Dec-08 04:31N 23°30' E 119°50'815.2
2017-Dec-08 04:01N 23°38' E 119°51'815.4
2017-Dec-08 03:30N 23°46' E 119°52'7917.0
2017-Dec-07 22:51N 24°55' E 120°34'717.4
2017-Dec-07 22:29N 25°00' E 120°38'1217.1
2017-Dec-07 21:47N 25°10' E 120°46'817.1
2017-Dec-07 21:18N 25°16' E 120°51'516.8
2017-Dec-07 21:00N 25°20' E 120°54'1017.3
2017-Dec-07 20:27N 25°28' E 121°01'  
2017-Nov-30 22:35N 33°59' E 129°50'115.7
2017-Nov-30 22:30N 33°59' E 129°52'816.0
2017-Nov-30 22:00N 34°01' E 130°01'815.9
2017-Nov-30 21:30N 34°02' E 130°11'816.1
2017-Nov-30 21:00N 34°03' E 130°20'815.8
2017-Nov-30 20:30N 34°04' E 130°30'815.7
2017-Nov-30 20:00N 34°04' E 130°39'815.3
2017-Nov-30 19:30N 34°03' E 130°48'612.2
2017-Nov-30 19:00N 33°58' E 130°53'4 7.3
2017-Nov-30 18:30N 33°55' E 130°54'4 7.8
2017-Nov-30 18:00N 33°58' E 130°57'4 7.3
2017-Nov-30 17:30N 33°58' E 131°02'4 8.5
2017-Nov-30 17:00N 33°55' E 131°05'4 8.1
2017-Nov-30 16:30N 33°53' E 131°09'5 9.0
2017-Nov-30 16:00N 33°51' E 131°14'611.2
2017-Nov-30 15:30N 33°50' E 131°21'714.8
2017-Nov-30 15:01N 33°49' E 131°30'714.7
2017-Nov-30 14:31N 33°47' E 131°38'714.6
2017-Nov-30 14:01N 33°46' E 131°47'714.9
2017-Nov-30 13:31N 33°44' E 131°56'815.4
2017-Nov-30 13:00N 33°42' E 132°05'815.5
2017-Nov-30 12:30N 33°43' E 132°14'1016.3
2017-Nov-30 11:54N 33°47' E 132°25'716.3
2017-Nov-30 11:29N 33°52' E 132°30'713.1
2017-Nov-30 10:59N 33°58' E 132°34'5 9.9
2017-Nov-30 10:27N 34°01' E 132°30'715.2
2017-Nov-30 10:00N 34°06' E 132°24'715.0
2017-Nov-30 09:30N 34°13' E 132°20'713.9
2017-Nov-30 09:00N 34°20' E 132°22'1 2.2
2017-Nov-30 08:30N 34°21' E 132°22'0 0.0
2017-Nov-30 08:00N 34°21' E 132°22'0 0.0
2017-Nov-30 07:30N 34°21' E 132°22'0 0.0
2017-Nov-30 07:00N 34°21' E 132°22'0 0.0
2017-Nov-30 06:30N 34°21' E 132°22'0 0.0
2017-Nov-30 06:00N 34°21' E 132°22'0 0.0
2017-Nov-30 05:29N 34°21' E 132°22'0 0.0
2017-Nov-30 05:00N 34°21' E 132°22'0 0.0
2017-Nov-30 04:30N 34°21' E 132°22'0 0.0
2017-Nov-30 04:00N 34°21' E 132°22'0 0.0
2017-Nov-30 03:30N 34°21' E 132°22'0 0.0
2017-Nov-30 02:59N 34°21' E 132°22'0 0.0
2017-Nov-30 02:27N 34°21' E 132°22'0 0.0
2017-Nov-30 02:00N 34°21' E 132°22'0 0.0
2017-Nov-30 01:30N 34°21' E 132°22'0 0.0
2017-Nov-30 01:00N 34°21' E 132°22'0 0.0
2017-Nov-30 00:29N 34°21' E 132°22'0 0.0
2017-Nov-30 00:00N 34°21' E 132°22'0 0.0
2017-Nov-29 23:23N 34°21' E 132°22'0 0.0
2017-Nov-29 23:00N 34°21' E 132°22'0 0.0
2017-Nov-29 22:27N 34°21' E 132°22'0 0.0
2017-Nov-29 22:00N 34°21' E 132°22'1 1.6
2017-Nov-29 21:30N 34°20' E 132°22'3 5.4
2017-Nov-29 21:01N 34°18' E 132°21'4 8.5
2017-Nov-29 20:30N 34°13' E 132°21'510.8
2017-Nov-29 20:00N 34°08' E 132°22'611.9
2017-Nov-29 19:30N 34°03' E 132°26'611.2
2017-Nov-29 19:00N 34°01' E 132°32'510.2
2017-Nov-29 18:29N 33°56' E 132°35'612.7
2017-Nov-29 17:59N 33°51' E 132°30'613.2
2017-Nov-29 17:31N 33°46' E 132°25'713.4
2017-Nov-29 17:00N 33°41' E 132°19'913.2
2017-Nov-29 16:18N 33°34' E 132°12'513.1
2017-Nov-29 15:53N 33°30' E 132°08'513.0
2017-Nov-29 15:30N 33°26' E 132°04'714.1
2017-Nov-29 15:01N 33°20' E 131°60'613.0
2017-Nov-29 14:31N 33°14' E 132°00'3 5.7
2017-Nov-29 14:00N 33°11' E 132°01'510.0
2017-Nov-29 13:31N 33°09' E 132°06'610.6
2017-Nov-29 12:59N 33°06' E 132°12'612.2
2017-Nov-29 12:29N 33°01' E 132°16'5811.8
2017-Nov-29 07:36N 32°36' E 133°19'18018.9
2017-Nov-28 22:06N 33°26' E 136°45'10519.3
2017-Nov-28 16:40N 34°00' E 138°44'518.8
2017-Nov-28 16:24N 34°02' E 138°50'1318.1
2017-Nov-28 15:40N 34°06' E 139°05'1217.8
2017-Nov-28 15:00N 34°10' E 139°18'1116.6
2017-Nov-28 14:20N 34°20' E 139°25'818.2
2017-Nov-28 13:54N 34°27' E 139°29'718.8
2017-Nov-28 13:30N 34°34' E 139°32'917.9
2017-Nov-28 13:00N 34°43' E 139°35'1019.3
2017-Nov-28 12:30N 34°52' E 139°39'1019.5
2017-Nov-28 12:00N 35°02' E 139°40'714.3
2017-Nov-28 11:30N 35°08' E 139°44'611.1
2017-Nov-28 11:00N 35°13' E 139°46'611.3
2017-Nov-28 10:31N 35°18' E 139°44'612.7
2017-Nov-28 10:01N 35°25' E 139°43'4 7.6
2017-Nov-28 09:30N 35°28' E 139°42'1 1.3
2017-Nov-28 08:59N 35°28' E 139°41'0 0.0
2017-Nov-28 08:29N 35°28' E 139°41'0 0.0
2017-Nov-28 07:59N 35°28' E 139°41'0 0.0
2017-Nov-28 07:29N 35°28' E 139°41'0 0.0
2017-Nov-28 06:59N 35°28' E 139°41'0 0.0
2017-Nov-28 06:29N 35°28' E 139°41'0 0.0
2017-Nov-28 05:59N 35°28' E 139°41'  

Dump ship's entire track history